Main page
METAR-TAF:

METAR-TAF

Airports :

Scatsta Airport

Scatsta, Shetland, Scotland

latitude: 60-26N, longitude: 001-18W, elevation: 22 m

Current weather observation

The report was made 19 minutes ago, at 05:20 UTC
Wind 3 kt from the North/Northeast
Temperature 13°C
Humidity 88%
Pressure 1011 hPa
Visibility 10 km or more
Few clouds at a height of 500 ft

METAR: EGPM 170520Z 03003KT 9999 FEW005 13/11 Q1011 TEMPO BKN005

Time: 06:39 (05:39 UTC)

Forecast

The report was made 3 hours and 43 minutes ago, at 01:56 UTC
Forecast valid from 17 at 03 UTC to 17 at 12 UTC
Wind 4 kt from the Northeast
Visibility 10 km or more
Scattered clouds at a height of 3500 ft
Temporary
from 17 at 03 UTC to 17 at 09 UTC
Visibility: 1200 m
Broken clouds at a height of 100 ft
light rain, drizzle, mist
Temporary
from 17 at 09 UTC to 17 at 12 UTC
Visibility: 4000 m
Broken clouds at a height of 400 ft
rain

TAF: EGPM 170156Z 1703/1712 04004KT 9999 SCT035 TEMPO 1703/1709 1200 -RADZ BR BKN001 TEMPO 1709/1712 4000 RA BKN004

Weather observations and forecasts of more than 4000 airports (METAR and TAF reports).

The available stations are represented by yellow and red dots on the map.

Hover mouse over dot to see the name of the station.

Then click to see weather observations and forecasts.

To change the map : click on the green buttons with a black cross to zoom in, on the green button with a dash to zoom out, or on the green arrows for adjacent maps.


METAR-TAF: